Time;durP1;ratioP1;P1;durP2;ratioP2;P2;SDS_P1;SDS_P2;PMS_P1;PMS_P2;Temp;Humidity;BMP_temperature;BMP_pressure;BME280_temperature;BME280_humidity;BME280_pressure;Samples;Min_cycle;Max_cycle;Signal;HPM_P1;HPM_P2
2023/08/30 00:01:22;;;;;;;1999.90;999.90;;;14.20;99.90;;;;;;5049412;28;20534;-68
2023/08/30 00:03:49;;;;;;;1999.90;999.90;;;14.20;99.90;;;;;;5045993;28;20429;-68
2023/08/30 00:06:16;;;;;;;1999.90;999.90;;;14.30;99.90;;;;;;5045508;28;20499;-67
2023/08/30 00:08:43;;;;;;;1999.90;999.90;;;14.20;99.90;;;;;;5041701;28;20776;-68
2023/08/30 00:11:11;;;;;;;1999.90;999.90;;;14.30;99.90;;;;;;5038967;28;20429;-68
2023/08/30 00:13:38;;;;;;;1999.90;999.90;;;14.50;99.90;;;;;;5048284;28;20436;-68
2023/08/30 00:16:04;;;;;;;1999.90;999.90;;;14.40;99.90;;;;;;5046063;28;21018;-68
2023/08/30 00:18:31;;;;;;;1999.90;999.90;;;14.40;99.90;;;;;;5041919;28;20437;-68
2023/08/30 00:20:58;;;;;;;1999.90;999.90;;;14.50;99.90;;;;;;5045116;28;20811;-68
2023/08/30 00:23:25;;;;;;;1999.90;999.90;;;14.50;99.90;;;;;;5049187;28;20433;-70
2023/08/30 00:25:52;;;;;;;1999.90;999.90;;;14.50;99.90;;;;;;5048064;28;20796;-68
2023/08/30 00:28:20;;;;;;;1999.90;999.90;;;14.50;99.90;;;;;;5044584;28;20444;-68
2023/08/30 00:30:47;;;;;;;1999.90;999.90;;;14.40;99.90;;;;;;5044600;28;20436;-68
2023/08/30 00:33:13;;;;;;;1999.90;999.90;;;14.20;99.90;;;;;;5048641;28;20433;-67
2023/08/30 00:35:40;;;;;;;1999.90;999.90;;;14.00;99.90;;;;;;5048023;28;20432;-65
2023/08/30 00:38:07;;;;;;;1999.90;999.90;;;14.00;99.90;;;;;;5040289;28;20437;-68
2023/08/30 00:40:39;;;;;;;1999.90;999.90;;;13.80;99.90;;;;;;5037644;28;20429;-67
2023/08/30 00:43:06;;;;;;;1999.90;999.90;;;13.90;99.90;;;;;;5036937;28;20440;-67
2023/08/30 00:45:38;;;;;;;1999.90;999.90;;;13.90;99.90;;;;;;5033217;28;20426;-66
2023/08/30 00:48:06;;;;;;;1999.90;999.90;;;14.00;99.90;;;;;;5048728;28;20437;-67
2023/08/30 00:50:33;;;;;;;1999.90;999.90;;;14.10;99.90;;;;;;5049423;28;20872;-66
2023/08/30 00:53:05;;;;;;;1999.90;999.90;;;14.10;99.90;;;;;;5051765;28;20437;-67
2023/08/30 00:55:32;;;;;;;1999.90;999.90;;;14.20;99.90;;;;;;5046154;28;20464;-68
2023/08/30 00:57:59;;;;;;;1999.90;999.90;;;14.20;99.90;;;;;;5044660;28;20440;-67
2023/08/30 01:00:27;;;;;;;1999.90;999.90;;;14.10;99.90;;;;;;5052258;28;20425;-67
2023/08/30 01:02:55;;;;;;;1999.90;999.90;;;14.00;99.90;;;;;;5051193;28;20498;-68
2023/08/30 01:05:23;;;;;;;1999.90;999.90;;;13.90;99.90;;;;;;5047458;28;20425;-67
2023/08/30 01:07:50;;;;;;;1999.90;999.90;;;13.80;99.90;;;;;;5038050;28;20433;-68
2023/08/30 01:10:17;;;;;;;1999.90;999.90;;;13.80;99.90;;;;;;5048210;28;20440;-68
2023/08/30 01:12:48;;;;;;;1999.90;999.90;;;13.70;99.90;;;;;;5051760;28;20962;-66
2023/08/30 01:15:19;;;;;;;1999.90;999.90;;;13.70;99.90;;;;;;5051062;28;20429;-68
2023/08/30 01:17:48;;;;;;;1999.90;999.90;;;13.70;99.90;;;;;;5050866;28;20451;-68
2023/08/30 01:20:19;;;;;;;1999.90;999.90;;;13.60;99.90;;;;;;5043946;28;20441;-68
2023/08/30 01:22:54;;;;;;;1999.90;999.90;;;13.70;99.90;;;;;;5040532;28;20803;-67
2023/08/30 01:25:33;;;;;;;1999.90;999.90;;;13.70;99.90;;;;;;5050460;28;20429;-68
2023/08/30 01:28:04;;;;;;;1999.90;999.90;;;14.10;99.90;;;;;;5045117;28;20498;-67
2023/08/30 01:30:32;;;;;;;1999.90;999.90;;;13.80;99.90;;;;;;5043847;28;20438;-68
2023/08/30 01:33:01;;;;;;;1999.90;999.90;;;13.80;99.90;;;;;;5044467;28;20529;-67
2023/08/30 01:35:32;;;;;;;1999.90;999.90;;;13.80;99.90;;;;;;5052245;28;20435;-68
2023/08/30 01:37:59;;;;;;;1999.90;999.90;;;13.90;99.90;;;;;;5051954;28;20429;-67
2023/08/30 01:40:27;;;;;;;1999.90;999.90;;;13.80;99.90;;;;;;5049296;28;20457;-67
2023/08/30 01:42:55;;;;;;;1999.90;999.90;;;13.80;99.90;;;;;;5044536;28;20428;-67
2023/08/30 01:45:24;;;;;;;1999.90;999.90;;;13.80;99.90;;;;;;5051650;28;20437;-68
2023/08/30 01:47:52;;;;;;;1999.90;999.90;;;13.80;99.90;;;;;;5050126;28;20436;-68
2023/08/30 01:50:20;;;;;;;1999.90;999.90;;;13.80;99.90;;;;;;5050414;28;20429;-66
2023/08/30 01:52:48;;;;;;;1999.90;999.90;;;13.70;99.90;;;;;;5044633;28;20425;-66
2023/08/30 01:55:16;;;;;;;1999.90;999.90;;;13.70;99.90;;;;;;5046888;28;20432;-65
2023/08/30 01:57:42;;;;;;;1999.90;999.90;;;13.70;99.90;;;;;;5050982;28;20460;-68
2023/08/30 02:00:10;;;;;;;1999.90;999.90;;;13.70;99.90;;;;;;5049651;28;20448;-66
2023/08/30 02:02:38;;;;;;;1999.90;999.90;;;13.70;99.90;;;;;;5050130;28;20464;-67
2023/08/30 02:05:06;;;;;;;1999.90;999.90;;;13.60;99.90;;;;;;5045718;28;20820;-68
2023/08/30 02:07:39;;;;;;;1999.90;999.90;;;13.80;99.90;;;;;;5042494;28;20432;-68
2023/08/30 02:10:09;;;;;;;1999.90;999.90;;;13.80;99.90;;;;;;5050172;28;20490;-69
2023/08/30 02:12:47;;;;;;;1999.90;999.90;;;13.80;99.90;;;;;;5050462;28;20452;-67
2023/08/30 02:15:15;;;;;;;1999.90;999.90;;;13.70;99.90;;;;;;5046785;28;20417;-65
2023/08/30 02:17:44;;;;;;;1999.90;999.90;;;13.60;99.90;;;;;;5035975;28;20450;-67
2023/08/30 02:20:11;;;;;;;1999.90;999.90;;;13.50;99.90;;;;;;5044096;28;20433;-67
2023/08/30 02:22:38;;;;;;;1999.90;999.90;;;13.60;99.90;;;;;;5050196;28;20433;-66
2023/08/30 02:25:07;;;;;;;1999.90;999.90;;;13.40;99.90;;;;;;5048752;28;20517;-68
2023/08/30 02:27:34;;;;;;;1999.90;999.90;;;13.40;99.90;;;;;;5049364;28;20424;-67
2023/08/30 02:30:02;;;;;;;1999.90;999.90;;;13.20;99.90;;;;;;5046724;28;20816;-66
2023/08/30 02:32:29;;;;;;;1999.90;999.90;;;13.10;99.90;;;;;;5046057;28;20946;-67
2023/08/30 02:34:57;;;;;;;1999.90;999.90;;;13.00;99.90;;;;;;5049138;28;20951;-66
2023/08/30 02:37:24;;;;;;;1999.90;999.90;;;13.00;99.90;;;;;;5044926;28;20440;-67
2023/08/30 02:39:51;;;;;;;1999.90;999.90;;;12.80;99.90;;;;;;5043619;28;20444;-67
2023/08/30 02:42:18;;;;;;;1999.90;999.90;;;12.60;99.90;;;;;;5046999;28;20433;-68
2023/08/30 02:44:45;;;;;;;1999.90;999.90;;;12.50;99.90;;;;;;5048650;28;20425;-67
2023/08/30 02:47:11;;;;;;;1999.90;999.90;;;12.30;99.90;;;;;;5050454;28;20436;-67
2023/08/30 02:49:38;;;;;;;1999.90;999.90;;;12.30;99.90;;;;;;5050071;28;20943;-68
2023/08/30 02:52:07;;;;;;;1999.90;999.90;;;12.30;99.90;;;;;;5045737;28;20434;-68
2023/08/30 02:54:33;;;;;;;1999.90;999.90;;;12.20;99.90;;;;;;5042834;28;20440;-67
2023/08/30 02:57:01;;;;;;;1999.90;999.90;;;12.20;99.90;;;;;;5049904;28;20425;-65
2023/08/30 02:59:27;;;;;;;1999.90;999.90;;;12.20;99.90;;;;;;5050319;28;20436;-68
2023/08/30 03:01:54;;;;;;;1999.90;999.90;;;12.20;99.90;;;;;;5049521;28;20444;-67
2023/08/30 03:04:21;;;;;;;1999.90;999.90;;;12.10;99.90;;;;;;5048125;28;20982;-67
2023/08/30 03:06:48;;;;;;;1999.90;999.90;;;12.20;99.90;;;;;;5041757;28;20436;-66
2023/08/30 03:09:16;;;;;;;1999.90;999.90;;;12.10;99.90;;;;;;5049202;28;20433;-67
2023/08/30 03:11:43;;;;;;;1999.90;999.90;;;12.20;99.90;;;;;;5049320;28;20429;-66
2023/08/30 03:14:09;;;;;;;1999.90;999.90;;;12.20;99.90;;;;;;5046299;28;20438;-67
2023/08/30 03:16:36;;;;;;;1999.90;999.90;;;12.10;99.90;;;;;;5048121;28;20433;-67
2023/08/30 03:19:03;;;;;;;1999.90;999.90;;;12.10;99.90;;;;;;5047599;28;20440;-68
2023/08/30 03:21:30;;;;;;;1999.90;999.90;;;12.20;99.90;;;;;;5043978;28;20472;-67
2023/08/30 03:23:57;;;;;;;1999.90;999.90;;;12.20;99.90;;;;;;5049020;28;20449;-65
2023/08/30 03:26:25;;;;;;;1999.90;999.90;;;12.30;99.90;;;;;;5049544;28;20433;-68
2023/08/30 03:28:51;;;;;;;1999.90;999.90;;;12.30;99.90;;;;;;5049513;28;20433;-68
2023/08/30 03:31:19;;;;;;;1999.90;999.90;;;12.40;99.90;;;;;;5047783;28;20460;-65
2023/08/30 03:33:47;;;;;;;1999.90;999.90;;;12.40;99.90;;;;;;5044028;28;20437;-68
2023/08/30 03:36:15;;;;;;;1999.90;999.90;;;12.50;99.90;;;;;;5038781;28;20803;-67
2023/08/30 03:38:42;;;;;;;1999.90;999.90;;;12.50;99.90;;;;;;5048960;28;20440;-67
2023/08/30 03:41:10;;;;;;;1999.90;999.90;;;12.70;99.90;;;;;;5045312;28;20435;-67
2023/08/30 03:43:38;;;;;;;1999.90;999.90;;;12.70;99.90;;;;;;5047129;28;20436;-66
2023/08/30 03:46:05;;;;;;;1999.90;999.90;;;12.70;99.90;;;;;;5045893;28;20425;-66
2023/08/30 03:48:32;;;;;;;1999.90;999.90;;;12.70;99.90;;;;;;5040956;28;20440;-66
2023/08/30 03:50:59;;;;;;;1999.90;999.90;;;12.70;99.90;;;;;;5048662;28;20433;-68
2023/08/30 03:53:26;;;;;;;1999.90;999.90;;;12.60;99.90;;;;;;5048036;28;20795;-68
2023/08/30 03:55:52;;;;;;;1999.90;999.90;;;12.60;99.90;;;;;;5048464;28;20468;-68
2023/08/30 03:58:19;;;;;;;1999.90;999.90;;;12.40;99.90;;;;;;5043476;28;20934;-65
2023/08/30 04:00:48;;;;;;;1999.90;999.90;;;12.30;99.90;;;;;;5039292;28;20437;-68
2023/08/30 04:03:16;;;;;;;1999.90;999.90;;;12.30;99.90;;;;;;5048403;28;20976;-67
2023/08/30 04:05:43;;;;;;;1999.90;999.90;;;12.30;99.90;;;;;;5048808;28;20425;-67
2023/08/30 04:08:10;;;;;;;1999.90;999.90;;;12.30;99.90;;;;;;5047765;28;20444;-67
2023/08/30 04:10:37;;;;;;;1999.90;999.90;;;12.30;99.90;;;;;;5048197;28;20441;-68
2023/08/30 04:13:04;;;;;;;1999.90;999.90;;;12.30;99.90;;;;;;5045176;28;20441;-66
2023/08/30 04:15:33;;;;;;;1999.90;999.90;;;12.40;99.90;;;;;;5040246;28;21083;-67
2023/08/30 04:18:01;;;;;;;1999.90;999.90;;;12.30;99.90;;;;;;5047563;28;20430;-67
2023/08/30 04:20:28;;;;;;;1999.90;999.90;;;12.30;99.90;;;;;;5048388;28;20437;-66
2023/08/30 04:22:56;;;;;;;1999.90;999.90;;;12.30;99.90;;;;;;5047773;28;20473;-67
2023/08/30 04:25:23;;;;;;;1999.90;999.90;;;12.30;99.90;;;;;;5046318;28;20532;-64
2023/08/30 04:27:50;;;;;;;1999.90;999.90;;;12.30;99.90;;;;;;5042568;28;20437;-67
2023/08/30 04:30:17;;;;;;;1999.90;999.90;;;12.30;99.90;;;;;;5042467;28;20445;-66
2023/08/30 04:32:44;;;;;;;1999.90;999.90;;;12.20;99.90;;;;;;5048211;28;20440;-65
2023/08/30 04:35:12;;;;;;;1999.90;999.90;;;12.30;99.90;;;;;;5046921;28;20429;-67
2023/08/30 04:37:39;;;;;;;1999.90;999.90;;;12.30;99.90;;;;;;5048351;28;20464;-67
2023/08/30 04:40:08;;;;;;;1999.90;999.90;;;12.40;99.90;;;;;;5045982;28;20949;-64
2023/08/30 04:42:35;;;;;;;1999.90;999.90;;;12.20;99.90;;;;;;5036623;28;20435;-66
2023/08/30 04:45:02;;;;;;;1999.90;999.90;;;12.10;99.90;;;;;;5046856;28;20432;-67
2023/08/30 04:47:29;;;;;;;1999.90;999.90;;;12.20;99.90;;;;;;5047966;28;20428;-67
2023/08/30 04:49:56;;;;;;;1999.90;999.90;;;12.20;99.90;;;;;;5047808;28;20433;-65
2023/08/30 04:52:24;;;;;;;1999.90;999.90;;;12.30;99.90;;;;;;5046927;28;20938;-67
2023/08/30 04:54:51;;;;;;;1999.90;999.90;;;12.30;99.90;;;;;;5043055;28;20455;-68
2023/08/30 04:57:18;;;;;;;1999.90;999.90;;;12.20;99.90;;;;;;5041358;28;20931;-67
2023/08/30 04:59:46;;;;;;;1999.90;999.90;;;12.10;99.90;;;;;;5047585;28;20429;-68
2023/08/30 05:02:12;;;;;;;1999.90;999.90;;;12.10;99.90;;;;;;5046987;28;20433;-66
2023/08/30 05:04:39;;;;;;;1999.90;999.90;;;12.00;99.90;;;;;;5041606;28;20442;-67
2023/08/30 05:07:06;;;;;;;1999.90;999.90;;;12.10;99.90;;;;;;5041576;28;20430;-67
2023/08/30 05:09:34;;;;;;;1999.90;999.90;;;12.10;99.90;;;;;;5044400;28;20460;-67
2023/08/30 05:12:02;;;;;;;1999.90;999.90;;;12.20;99.90;;;;;;5046122;28;20433;-67
2023/08/30 05:14:28;;;;;;;1999.90;999.90;;;12.40;99.90;;;;;;5045727;28;20542;-67
2023/08/30 05:16:55;;;;;;;1999.90;999.90;;;12.60;99.90;;;;;;5045980;28;20934;-67
2023/08/30 05:19:22;;;;;;;1999.90;999.90;;;12.90;99.90;;;;;;5040078;28;20433;-66
2023/08/30 05:21:51;;;;;;;1999.90;999.90;;;12.90;99.90;;;;;;5044673;28;20433;-66
2023/08/30 05:24:18;;;;;;;1999.90;999.90;;;12.90;99.90;;;;;;5047873;28;20480;-67
2023/08/30 05:26:46;;;;;;;1999.90;999.90;;;13.10;99.90;;;;;;5047858;28;20440;-65
2023/08/30 05:29:13;;;;;;;1999.90;999.90;;;13.40;99.90;;;;;;5046630;28;21052;-66
2023/08/30 05:31:40;;;;;;;1999.90;999.90;;;13.60;99.90;;;;;;5046007;28;20437;-65
2023/08/30 05:34:07;;;;;;;1999.90;999.90;;;13.70;99.90;;;;;;5047476;28;20846;-67
2023/08/30 05:36:34;;;;;;;1999.90;999.90;;;13.70;99.90;;;;;;5048345;28;20494;-67
2023/08/30 05:39:01;;;;;;;1999.90;999.90;;;13.70;99.90;;;;;;5050691;28;20454;-67
2023/08/30 05:41:27;;;;;;;1999.90;999.90;;;13.70;99.90;;;;;;5044071;28;20445;-67
2023/08/30 05:43:56;;;;;;;1999.90;999.90;;;13.70;99.90;;;;;;5049672;28;20452;-68
2023/08/30 05:46:23;;;;;;;1999.90;999.90;;;13.80;99.90;;;;;;5050511;28;20432;-67
2023/08/30 05:48:50;;;;;;;1999.90;999.90;;;13.80;99.90;;;;;;5046480;28;20444;-67
2023/08/30 05:51:16;;;;;;;1999.90;999.90;;;13.90;99.90;;;;;;5049811;28;20440;-68
2023/08/30 05:53:43;;;;;;;1999.90;999.90;;;13.90;99.90;;;;;;5050707;28;20440;-67
2023/08/30 05:56:10;;;;;;;1999.90;999.90;;;14.20;99.90;;;;;;5051518;28;20433;-67
2023/08/30 05:58:37;;;;;;;1999.90;999.90;;;14.60;99.90;;;;;;5048124;28;20437;-67
2023/08/30 06:01:07;;;;;;;1999.90;999.90;;;14.90;99.90;;;;;;5049328;28;20433;-67
2023/08/30 06:03:34;;;;;;;1999.90;999.90;;;15.10;99.90;;;;;;5051459;28;20438;-68
2023/08/30 06:06:01;;;;;;;1999.90;999.90;;;15.30;99.90;;;;;;5051288;28;20422;-68
2023/08/30 06:08:28;;;;;;;1999.90;999.90;;;15.50;99.90;;;;;;5051170;28;20446;-67
2023/08/30 06:10:55;;;;;;;1999.90;999.90;;;15.70;99.90;;;;;;5046702;28;20433;-68
2023/08/30 06:13:21;;;;;;;1999.90;999.90;;;16.00;99.90;;;;;;5051372;28;20433;-67
2023/08/30 06:15:51;;;;;;;1999.90;999.90;;;16.20;99.90;;;;;;5050224;28;20425;-67
2023/08/30 06:18:19;;;;;;;1999.90;999.90;;;16.50;99.90;;;;;;5049469;28;20436;-68
2023/08/30 06:20:46;;;;;;;1999.90;999.90;;;16.60;99.90;;;;;;5050164;28;20428;-68
2023/08/30 06:23:14;;;;;;;1999.90;999.90;;;16.90;99.90;;;;;;5049137;28;20433;-68
2023/08/30 06:25:41;;;;;;;1999.90;999.90;;;17.20;99.90;;;;;;5043420;28;20433;-68
2023/08/30 06:28:07;;;;;;;1999.90;999.90;;;17.40;99.90;;;;;;5049532;28;20429;-67
2023/08/30 06:30:34;;;;;;;1999.90;999.90;;;17.60;99.90;;;;;;5050570;28;20433;-66
2023/08/30 06:33:01;;;;;;;1999.90;999.90;;;17.70;99.90;;;;;;5049124;28;20465;-66
2023/08/30 06:35:29;;;;;;;1999.90;999.90;;;18.00;99.90;;;;;;5045564;28;20433;-66
2023/08/30 06:37:56;;;;;;;1999.90;999.90;;;18.10;99.90;;;;;;5044364;28;20443;-67
2023/08/30 06:40:22;;;;;;;1999.90;999.90;;;18.40;99.90;;;;;;5041455;28;20423;-67
2023/08/30 06:42:49;;;;;;;1999.90;999.90;;;18.70;99.90;;;;;;5094637;22;20434;-65
2023/08/30 06:45:16;;;;;;;1999.90;999.90;;;19.20;99.90;;;;;;5104467;28;20427;-65
2023/08/30 06:47:43;;;;;;;1999.90;999.90;;;19.60;99.90;;;;;;5095292;28;20471;-66
2023/08/30 06:50:10;;;;;;;1999.90;999.90;;;19.80;99.90;;;;;;5098910;28;20514;-66
2023/08/30 06:52:38;;;;;;;1999.90;999.90;;;20.20;99.90;;;;;;5092704;28;20426;-65
2023/08/30 06:55:05;;;;;;;1999.90;999.90;;;20.50;99.90;;;;;;5081498;28;20427;-65
2023/08/30 06:57:32;;;;;;;1999.90;999.90;;;20.80;99.90;;;;;;5082172;28;20509;-66
2023/08/30 07:00:07;;;;;;;1999.90;999.90;;;21.20;99.90;;;;;;5071743;28;20423;-66
2023/08/30 07:02:34;;;;;;;1999.90;999.90;;;21.40;99.90;;;;;;5072144;28;20462;-65
2023/08/30 07:05:00;;;;;;;1999.90;999.90;;;21.20;99.90;;;;;;5075633;28;20425;-66
2023/08/30 07:07:27;;;;;;;1999.90;999.90;;;21.30;99.90;;;;;;5072263;28;20439;-66
2023/08/30 07:09:56;;;;;;;1999.90;999.90;;;21.70;99.90;;;;;;5086465;28;20414;-66
2023/08/30 07:12:23;;;;;;;1999.90;999.90;;;22.10;99.90;;;;;;5083027;28;20414;-65
2023/08/30 07:14:49;;;;;;;1999.90;999.90;;;22.10;99.90;;;;;;5091431;28;20918;-66
2023/08/30 07:17:16;;;;;;;1999.90;999.90;;;22.30;99.90;;;;;;5088218;28;20429;-66
2023/08/30 07:19:43;;;;;;;1999.90;999.90;;;22.20;99.90;;;;;;5079572;28;20442;-65
2023/08/30 07:22:10;;;;;;;1999.90;999.90;;;22.20;99.90;;;;;;5080612;28;20433;-66
2023/08/30 07:24:36;;;;;;;1999.90;999.90;;;22.20;99.90;;;;;;5071077;28;20415;-65
2023/08/30 07:27:05;;;;;;;1999.90;999.90;;;22.60;99.90;;;;;;5087250;28;20436;-65
2023/08/30 07:29:32;;;;;;;1999.90;999.90;;;22.40;99.90;;;;;;5091267;28;20414;-67
2023/08/30 07:31:59;;;;;;;1999.90;999.90;;;22.10;99.90;;;;;;5084842;28;20437;-66
2023/08/30 07:34:26;;;;;;;1999.90;999.90;;;22.30;99.90;;;;;;5071709;28;21093;-66
2023/08/30 07:36:55;;;;;;;1999.90;999.90;;;22.60;99.90;;;;;;5071219;28;20407;-66
2023/08/30 07:39:22;;;;;;;1999.90;999.90;;;22.70;99.90;;;;;;5070800;28;20427;-67
2023/08/30 07:41:49;;;;;;;1999.90;999.90;;;23.10;99.90;;;;;;5070532;28;20762;-68
2023/08/30 07:44:17;;;;;;;1999.90;999.90;;;23.20;98.80;;;;;;5076826;28;20433;-68
2023/08/30 07:46:44;;;;;;;1999.90;999.90;;;23.00;98.60;;;;;;5070573;28;20428;-68
2023/08/30 07:49:11;;;;;;;1999.90;999.90;;;22.90;98.70;;;;;;5087876;28;20418;-65
2023/08/30 07:51:37;;;;;;;1999.90;999.90;;;22.70;99.70;;;;;;5070764;28;20407;-66
2023/08/30 07:54:04;;;;;;;1999.90;999.90;;;22.80;99.90;;;;;;5070618;28;20408;-66
2023/08/30 07:56:31;;;;;;;1999.90;999.90;;;22.60;99.90;;;;;;5078470;28;20427;-66
2023/08/30 07:58:58;;;;;;;1999.90;999.90;;;22.50;99.90;;;;;;5070310;28;20897;-66
2023/08/30 08:01:26;;;;;;;1999.90;999.90;;;22.50;99.90;;;;;;5088772;28;20410;-66
2023/08/30 08:03:53;;;;;;;1999.90;999.90;;;22.50;99.90;;;;;;5089700;28;20421;-65
2023/08/30 08:06:19;;;;;;;1999.90;999.90;;;22.50;99.90;;;;;;5072470;28;21042;-65
2023/08/30 08:08:46;;;;;;;1999.90;999.90;;;22.60;99.90;;;;;;5083468;28;20406;-66
2023/08/30 08:11:13;;;;;;;1999.90;999.90;;;22.40;99.90;;;;;;5090451;28;20410;-66
2023/08/30 08:13:40;;;;;;;1999.90;999.90;;;22.30;99.90;;;;;;5090416;28;20603;-65
2023/08/30 08:16:06;;;;;;;1999.90;999.90;;;22.50;99.90;;;;;;5089550;28;20527;-66
2023/08/30 08:18:35;;;;;;;1999.90;999.90;;;22.50;99.90;;;;;;5070936;28;20420;-65
2023/08/30 08:21:02;;;;;;;1999.90;999.90;;;22.60;99.90;;;;;;5077908;28;20427;-66
2023/08/30 08:23:29;;;;;;;1999.90;999.90;;;22.90;99.90;;;;;;5072151;28;20490;-67
2023/08/30 08:25:58;;;;;;;1999.90;999.90;;;23.20;99.90;;;;;;5090425;28;20413;-66
2023/08/30 08:28:25;;;;;;;1999.90;999.90;;;22.10;99.90;;;;;;5089977;28;20436;-66
2023/08/30 08:30:52;;;;;;;1999.90;999.90;;;22.00;99.90;;;;;;5082972;28;20438;-66
2023/08/30 08:33:19;;;;;;;1999.90;999.90;;;21.30;99.90;;;;;;5070325;28;20408;-65
2023/08/30 08:35:49;;;;;;;1999.90;999.90;;;21.20;99.90;;;;;;5090210;28;20784;-65
2023/08/30 08:38:15;;;;;;;1999.90;999.90;;;21.20;99.90;;;;;;5090034;28;20900;-66
2023/08/30 08:40:42;;;;;;;1999.90;999.90;;;21.30;99.90;;;;;;5090119;28;20410;-65
2023/08/30 08:43:11;;;;;;;1999.90;999.90;;;21.50;99.90;;;;;;5073157;28;20435;-65
2023/08/30 08:45:37;;;;;;;1999.90;999.90;;;21.70;99.90;;;;;;5081581;28;20406;-66
2023/08/30 08:48:05;;;;;;;1999.90;999.90;;;21.80;99.90;;;;;;5090152;28;20425;-66
2023/08/30 08:50:33;;;;;;;1999.90;999.90;;;21.90;99.90;;;;;;5089925;28;20492;-66
2023/08/30 08:53:03;;;;;;;1999.90;999.90;;;21.60;99.90;;;;;;5089861;28;20410;-66
2023/08/30 08:55:31;;;;;;;1999.90;999.90;;;21.80;99.90;;;;;;5088868;28;20487;-65
2023/08/30 08:57:59;;;;;;;1999.90;999.90;;;21.80;99.90;;;;;;5084680;28;20502;-66
2023/08/30 09:00:27;;;;;;;1999.90;999.90;;;21.80;99.90;;;;;;5079479;28;20406;-65
2023/08/30 09:02:54;;;;;;;1999.90;999.90;;;21.90;99.90;;;;;;5089947;28;20441;-66
2023/08/30 09:05:21;;;;;;;1999.90;999.90;;;22.20;99.90;;;;;;5089890;28;20914;-66
2023/08/30 09:07:51;;;;;;;1999.90;999.90;;;22.20;99.90;;;;;;5086794;28;20431;-65
2023/08/30 09:10:19;;;;;;;1999.90;999.90;;;22.00;99.60;;;;;;5073492;28;20502;-66
2023/08/30 09:12:45;;;;;;;1999.90;999.90;;;21.80;99.90;;;;;;5077300;28;20425;-65
2023/08/30 09:15:12;;;;;;;1999.90;999.90;;;21.70;99.90;;;;;;5078401;28;20407;-65
2023/08/30 09:17:40;;;;;;;1999.90;999.90;;;22.00;99.90;;;;;;5084699;28;20406;-65
2023/08/30 09:20:08;;;;;;;1999.90;999.90;;;22.20;99.90;;;;;;5093862;28;20429;-65
2023/08/30 09:22:39;;;;;;;1999.90;999.90;;;22.30;99.80;;;;;;5093558;28;20416;-65
2023/08/30 09:25:07;;;;;;;1999.90;999.90;;;22.50;99.90;;;;;;5086657;28;20524;-65
2023/08/30 09:27:35;;;;;;;1999.90;999.90;;;22.70;99.40;;;;;;5075376;28;20528;-66
2023/08/30 09:30:03;;;;;;;1999.90;999.90;;;23.10;98.70;;;;;;5093703;28;20413;-66
2023/08/30 09:32:30;;;;;;;1999.90;999.90;;;23.20;99.10;;;;;;5093256;28;20916;-68
2023/08/30 09:34:57;;;;;;;1999.90;999.90;;;23.70;98.40;;;;;;5090027;28;20429;-68
2023/08/30 09:37:26;;;;;;;1999.90;999.90;;;23.70;97.20;;;;;;5089061;28;20452;-67
2023/08/30 09:39:53;;;;;;;1999.90;999.90;;;23.70;96.20;;;;;;5085701;28;20446;-67
2023/08/30 09:42:20;;;;;;;1999.90;999.90;;;23.90;97.00;;;;;;5080979;28;20868;-68
2023/08/30 09:44:48;;;;;;;1999.90;999.90;;;24.00;96.80;;;;;;5077923;28;20433;-68
2023/08/30 09:47:15;;;;;;;1999.90;999.90;;;24.00;96.20;;;;;;5092971;28;20434;-68
2023/08/30 09:49:45;;;;;;;1999.90;999.90;;;24.20;95.70;;;;;;5089699;28;20434;-68
2023/08/30 09:52:15;;;;;;;1999.90;999.90;;;24.30;95.40;;;;;;5089693;28;20483;-68
2023/08/30 09:54:43;;;;;;;1999.90;999.90;;;23.50;95.80;;;;;;5089899;28;20433;-69
2023/08/30 09:57:10;;;;;;;1999.90;999.90;;;23.30;98.40;;;;;;5086759;28;20508;-68
2023/08/30 09:59:38;;;;;;;1999.90;999.90;;;23.30;97.80;;;;;;5082812;28;20927;-68
2023/08/30 10:02:06;;;;;;;1999.90;999.90;;;23.20;97.20;;;;;;5077685;28;20975;-68
2023/08/30 10:04:33;;;;;;;1999.90;999.90;;;23.10;97.30;;;;;;5072686;28;20439;-67
2023/08/30 10:07:02;;;;;;;1999.90;999.90;;;22.80;97.00;;;;;;5076077;28;20454;-69
2023/08/30 10:09:31;;;;;;;1999.90;999.90;;;23.00;96.60;;;;;;5073820;28;20522;-68
2023/08/30 10:12:01;;;;;;;1999.90;999.90;;;23.00;98.50;;;;;;5092677;28;20929;-67
2023/08/30 10:14:28;;;;;;;1999.90;999.90;;;22.80;97.80;;;;;;5092413;28;20406;-68
2023/08/30 10:17:02;;;;;;;1999.90;999.90;;;22.60;97.60;;;;;;5092892;28;20821;-69
2023/08/30 10:19:32;;;;;;;1999.90;999.90;;;22.40;99.60;;;;;;5091838;28;20413;-68
2023/08/30 10:22:03;;;;;;;1999.90;999.90;;;22.40;99.00;;;;;;5072306;28;20414;-68
2023/08/30 10:24:33;;;;;;;1999.90;999.90;;;22.50;99.20;;;;;;5072245;28;20801;-67
2023/08/30 10:27:02;;;;;;;1999.90;999.90;;;22.30;99.90;;;;;;5072263;28;20443;-68
2023/08/30 10:29:29;;;;;;;1999.90;999.90;;;22.10;99.90;;;;;;5072356;28;20412;-68
2023/08/30 10:31:56;;;;;;;1999.90;999.90;;;22.10;99.60;;;;;;5084587;28;20430;-66
2023/08/30 10:34:24;;;;;;;1999.90;999.90;;;22.30;99.90;;;;;;5082866;28;20426;-65
2023/08/30 10:37:01;;;;;;;1999.90;999.90;;;21.90;99.90;;;;;;5086864;28;20422;-66
2023/08/30 10:39:35;;;;;;;1999.90;999.90;;;21.60;99.90;;;;;;5088856;28;20490;-66
2023/08/30 10:42:07;;;;;;;1999.90;999.90;;;21.90;99.90;;;;;;5089706;28;20438;-65
2023/08/30 10:44:34;;;;;;;1999.90;999.90;;;21.80;99.90;;;;;;5091696;28;20410;-66
2023/08/30 10:47:03;;;;;;;1999.90;999.90;;;21.80;99.90;;;;;;5089115;28;20938;-65
2023/08/30 10:49:29;;;;;;;1999.90;999.90;;;21.70;99.90;;;;;;5081413;28;20797;-66
2023/08/30 10:52:00;;;;;;;1999.90;999.90;;;21.80;99.90;;;;;;5081642;28;20430;-66
2023/08/30 10:54:38;;;;;;;1999.90;999.90;;;21.70;99.90;;;;;;5080729;28;20416;-66
2023/08/30 10:57:05;;;;;;;1999.90;999.90;;;21.90;99.90;;;;;;5080351;28;20437;-67
2023/08/30 10:59:32;;;;;;;1999.90;999.90;;;22.20;99.90;;;;;;5084711;28;20429;-66
2023/08/30 11:02:03;;;;;;;1999.90;999.90;;;22.40;99.90;;;;;;5084597;28;20927;-66
2023/08/30 11:04:30;;;;;;;1999.90;999.90;;;22.60;98.90;;;;;;5089983;28;20500;-66
2023/08/30 11:06:59;;;;;;;1999.90;999.90;;;23.20;98.50;;;;;;5081972;28;20438;-66
2023/08/30 11:09:26;;;;;;;1999.90;999.90;;;23.40;97.60;;;;;;5088527;28;20831;-65
2023/08/30 11:11:53;;;;;;;1999.90;999.90;;;23.40;98.80;;;;;;5085924;28;20812;-66
2023/08/30 11:14:20;;;;;;;1999.90;999.90;;;23.30;97.60;;;;;;5082155;28;20429;-65
2023/08/30 11:16:46;;;;;;;1999.90;999.90;;;23.20;97.40;;;;;;5076531;28;20425;-64
2023/08/30 11:19:13;;;;;;;1999.90;999.90;;;23.20;96.70;;;;;;5078139;28;20422;-66
2023/08/30 11:21:43;;;;;;;1999.90;999.90;;;23.40;97.30;;;;;;5088193;28;20432;-68
2023/08/30 11:24:12;;;;;;;1999.90;999.90;;;23.40;96.60;;;;;;5086648;28;20494;-68
2023/08/30 11:26:38;;;;;;;1999.90;999.90;;;23.40;96.40;;;;;;5080463;28;20433;-66
2023/08/30 11:29:06;;;;;;;1999.90;999.90;;;23.20;96.60;;;;;;5078388;28;20439;-66
2023/08/30 11:31:33;;;;;;;1999.90;999.90;;;23.10;97.70;;;;;;5072079;28;20438;-67
2023/08/30 11:34:00;;;;;;;1999.90;999.90;;;22.80;97.50;;;;;;5084542;28;20434;-66
2023/08/30 11:36:29;;;;;;;1999.90;999.90;;;22.70;99.90;;;;;;5090158;28;20437;-65
2023/08/30 11:38:56;;;;;;;1999.90;999.90;;;22.60;98.40;;;;;;5077315;28;20435;-66
2023/08/30 11:41:25;;;;;;;1999.90;999.90;;;22.40;99.90;;;;;;5086597;28;20426;-65
2023/08/30 11:43:53;;;;;;;1999.90;999.90;;;22.30;99.90;;;;;;5085200;28;20542;-66
2023/08/30 11:46:20;;;;;;;1999.90;999.90;;;22.30;98.80;;;;;;5084696;28;20436;-64
2023/08/30 11:48:50;;;;;;;1999.90;999.90;;;22.20;98.30;;;;;;5080293;28;20509;-66
2023/08/30 11:51:18;;;;;;;1999.90;999.90;;;22.10;98.80;;;;;;5070586;28;20996;-66
2023/08/30 11:53:46;;;;;;;1999.90;999.90;;;22.10;98.60;;;;;;5070582;28;20434;-65
2023/08/30 11:56:13;;;;;;;1999.90;999.90;;;21.80;98.70;;;;;;5077653;28;20441;-67
2023/08/30 11:58:41;;;;;;;1999.90;999.90;;;21.80;99.40;;;;;;5087551;28;21357;-66
2023/08/30 12:01:09;;;;;;;1999.90;999.90;;;21.90;99.90;;;;;;5088780;28;20444;-66